Pentwater, Michigan
Current Conditions -  °F | °C
As of 10:55 AM on Friday 24 Oct 2014 (Local Time) from KLDM Reporting Station
Haze Haze  
Wind Chill: 52°   Ceiling: 500
Heat Index: 52°   Visibility: 3mi
Dew Point: 50°   Wind: 3mph
Humidity: 92%   Direction: 280°W
Pressure: 30.04"   Gusts: NA
Location:  43.78°N, 86.43°W
Report Text: KLDM 241455Z AUTO 28003KT 3SM BR OVC005 11/10 A3004 RMK AO2 T01100098
Loading
Personal Weather Stations






























Interactive Weather Map
Tropical Storm Tracking
New forecast layout! Learn more

10-Day Weather Forecast

Advertisements
Track Severe Weather on mobile